sensor_id;sensor_type;location;lat;lon;timestamp;temperature;humidity
7736;DHT22;3911;48.830;9.072;2022-08-01T00:00:54;26.70;48.20
7736;DHT22;3911;48.830;9.072;2022-08-01T00:03:20;26.70;48.30
7736;DHT22;3911;48.830;9.072;2022-08-01T00:05:47;26.70;48.20
7736;DHT22;3911;48.830;9.072;2022-08-01T00:08:14;26.70;48.30
7736;DHT22;3911;48.830;9.072;2022-08-01T00:10:41;26.80;48.30
7736;DHT22;3911;48.830;9.072;2022-08-01T00:13:08;26.70;48.30
7736;DHT22;3911;48.830;9.072;2022-08-01T00:15:36;26.70;48.30
7736;DHT22;3911;48.830;9.072;2022-08-01T00:18:03;26.70;48.30
7736;DHT22;3911;48.830;9.072;2022-08-01T00:20:30;26.70;48.30
7736;DHT22;3911;48.830;9.072;2022-08-01T00:22:57;26.70;48.30
7736;DHT22;3911;48.830;9.072;2022-08-01T00:25:24;26.70;48.20
7736;DHT22;3911;48.830;9.072;2022-08-01T00:27:50;26.70;48.20
7736;DHT22;3911;48.830;9.072;2022-08-01T00:30:17;26.70;48.30
7736;DHT22;3911;48.830;9.072;2022-08-01T00:32:43;26.70;48.30
7736;DHT22;3911;48.830;9.072;2022-08-01T00:35:10;26.70;48.30
7736;DHT22;3911;48.830;9.072;2022-08-01T00:37:37;26.70;48.30
7736;DHT22;3911;48.830;9.072;2022-08-01T00:40:05;26.70;48.30
7736;DHT22;3911;48.830;9.072;2022-08-01T00:42:32;26.70;48.20
7736;DHT22;3911;48.830;9.072;2022-08-01T00:44:59;26.70;49.10
7736;DHT22;3911;48.830;9.072;2022-08-01T00:47:26;26.70;48.30
7736;DHT22;3911;48.830;9.072;2022-08-01T00:49:54;26.70;48.20
7736;DHT22;3911;48.830;9.072;2022-08-01T00:52:21;26.70;48.30
7736;DHT22;3911;48.830;9.072;2022-08-01T00:54:48;26.70;48.30
7736;DHT22;3911;48.830;9.072;2022-08-01T00:57:16;26.70;48.20
7736;DHT22;3911;48.830;9.072;2022-08-01T00:59:42;26.70;48.20
7736;DHT22;3911;48.830;9.072;2022-08-01T01:02:09;26.70;48.20
7736;DHT22;3911;48.830;9.072;2022-08-01T01:04:36;26.70;48.20
7736;DHT22;3911;48.830;9.072;2022-08-01T01:07:15;26.70;48.20
7736;DHT22;3911;48.830;9.072;2022-08-01T01:09:44;26.70;48.30
7736;DHT22;3911;48.830;9.072;2022-08-01T01:12:19;26.70;48.20
7736;DHT22;3911;48.830;9.072;2022-08-01T01:14:51;26.70;48.20
7736;DHT22;3911;48.830;9.072;2022-08-01T01:17:16;26.70;48.20
7736;DHT22;3911;48.830;9.072;2022-08-01T01:19:47;26.70;48.20
7736;DHT22;3911;48.830;9.072;2022-08-01T01:25:34;26.70;48.20
7736;DHT22;3911;48.830;9.072;2022-08-01T01:30:52;26.70;48.20
7736;DHT22;3911;48.830;9.072;2022-08-01T01:33:18;26.70;48.20
7736;DHT22;3911;48.830;9.072;2022-08-01T01:35:46;26.70;48.10
7736;DHT22;3911;48.830;9.072;2022-08-01T01:38:17;26.70;48.20
7736;DHT22;3911;48.830;9.072;2022-08-01T01:40:41;26.70;48.10
7736;DHT22;3911;48.830;9.072;2022-08-01T01:43:09;26.70;48.20
7736;DHT22;3911;48.830;9.072;2022-08-01T01:45:34;26.70;48.20
7736;DHT22;3911;48.830;9.072;2022-08-01T01:48:01;26.70;48.10
7736;DHT22;3911;48.830;9.072;2022-08-01T01:50:28;26.70;48.20
7736;DHT22;3911;48.830;9.072;2022-08-01T01:52:56;26.60;48.20
7736;DHT22;3911;48.830;9.072;2022-08-01T01:55:23;26.60;48.20
7736;DHT22;3911;48.830;9.072;2022-08-01T01:57:50;26.70;48.20
7736;DHT22;3911;48.830;9.072;2022-08-01T02:00:16;26.70;48.10
7736;DHT22;3911;48.830;9.072;2022-08-01T02:02:43;26.60;48.10
7736;DHT22;3911;48.830;9.072;2022-08-01T02:05:11;26.60;48.20
7736;DHT22;3911;48.830;9.072;2022-08-01T02:07:36;26.70;48.20
7736;DHT22;3911;48.830;9.072;2022-08-01T02:10:04;26.60;48.20
7736;DHT22;3911;48.830;9.072;2022-08-01T02:12:32;26.60;48.20
7736;DHT22;3911;48.830;9.072;2022-08-01T02:14:57;26.70;48.20
7736;DHT22;3911;48.830;9.072;2022-08-01T02:17:24;26.70;48.20
7736;DHT22;3911;48.830;9.072;2022-08-01T02:19:51;26.70;48.20
7736;DHT22;3911;48.830;9.072;2022-08-01T02:22:21;26.70;48.20
7736;DHT22;3911;48.830;9.072;2022-08-01T02:24:50;26.60;48.10
7736;DHT22;3911;48.830;9.072;2022-08-01T02:27:17;26.60;48.10
7736;DHT22;3911;48.830;9.072;2022-08-01T02:29:45;26.60;48.10
7736;DHT22;3911;48.830;9.072;2022-08-01T02:32:11;26.60;48.60
7736;DHT22;3911;48.830;9.072;2022-08-01T02:34:38;26.60;48.20
7736;DHT22;3911;48.830;9.072;2022-08-01T02:37:05;26.60;48.20
7736;DHT22;3911;48.830;9.072;2022-08-01T02:39:33;26.60;48.10
7736;DHT22;3911;48.830;9.072;2022-08-01T02:42:00;26.60;48.10
7736;DHT22;3911;48.830;9.072;2022-08-01T02:44:28;26.60;48.10
7736;DHT22;3911;48.830;9.072;2022-08-01T02:46:56;26.60;48.10
7736;DHT22;3911;48.830;9.072;2022-08-01T02:49:20;26.60;48.10
7736;DHT22;3911;48.830;9.072;2022-08-01T02:51:47;26.60;48.20
7736;DHT22;3911;48.830;9.072;2022-08-01T02:54:14;26.60;48.10
7736;DHT22;3911;48.830;9.072;2022-08-01T02:56:40;26.60;48.10
7736;DHT22;3911;48.830;9.072;2022-08-01T02:59:09;26.60;48.20
7736;DHT22;3911;48.830;9.072;2022-08-01T03:01:34;26.60;48.20
7736;DHT22;3911;48.830;9.072;2022-08-01T03:04:01;26.60;48.20
7736;DHT22;3911;48.830;9.072;2022-08-01T03:06:27;26.60;48.20
7736;DHT22;3911;48.830;9.072;2022-08-01T03:08:54;26.60;48.20
7736;DHT22;3911;48.830;9.072;2022-08-01T03:11:21;26.60;48.20
7736;DHT22;3911;48.830;9.072;2022-08-01T03:13:47;26.60;48.20
7736;DHT22;3911;48.830;9.072;2022-08-01T03:16:14;26.60;48.20
7736;DHT22;3911;48.830;9.072;2022-08-01T03:18:40;26.60;48.90
7736;DHT22;3911;48.830;9.072;2022-08-01T03:21:08;26.60;48.20
7736;DHT22;3911;48.830;9.072;2022-08-01T03:23:35;26.60;48.20
7736;DHT22;3911;48.830;9.072;2022-08-01T03:26:02;26.60;48.20
7736;DHT22;3911;48.830;9.072;2022-08-01T03:28:30;26.60;48.20
7736;DHT22;3911;48.830;9.072;2022-08-01T03:30:57;26.60;48.20
7736;DHT22;3911;48.830;9.072;2022-08-01T03:33:23;26.60;48.20
7736;DHT22;3911;48.830;9.072;2022-08-01T03:35:52;26.60;48.20
7736;DHT22;3911;48.830;9.072;2022-08-01T03:38:18;26.60;48.20
7736;DHT22;3911;48.830;9.072;2022-08-01T03:40:45;26.60;48.20
7736;DHT22;3911;48.830;9.072;2022-08-01T03:43:11;26.60;48.20
7736;DHT22;3911;48.830;9.072;2022-08-01T03:45:39;26.60;48.20
7736;DHT22;3911;48.830;9.072;2022-08-01T03:48:09;26.60;48.20
7736;DHT22;3911;48.830;9.072;2022-08-01T03:50:35;26.60;48.20
7736;DHT22;3911;48.830;9.072;2022-08-01T03:53:02;26.60;48.20
7736;DHT22;3911;48.830;9.072;2022-08-01T03:55:30;26.60;48.20
7736;DHT22;3911;48.830;9.072;2022-08-01T03:57:56;26.60;48.20
7736;DHT22;3911;48.830;9.072;2022-08-01T04:00:23;26.60;48.20
7736;DHT22;3911;48.830;9.072;2022-08-01T04:02:49;26.60;48.20
7736;DHT22;3911;48.830;9.072;2022-08-01T04:05:16;26.60;48.20
7736;DHT22;3911;48.830;9.072;2022-08-01T04:07:46;26.60;48.20
7736;DHT22;3911;48.830;9.072;2022-08-01T04:10:12;26.60;48.20
7736;DHT22;3911;48.830;9.072;2022-08-01T04:12:38;26.60;48.10
7736;DHT22;3911;48.830;9.072;2022-08-01T04:15:06;26.60;48.20
7736;DHT22;3911;48.830;9.072;2022-08-01T04:17:32;26.50;48.10
7736;DHT22;3911;48.830;9.072;2022-08-01T04:19:59;26.60;48.20
7736;DHT22;3911;48.830;9.072;2022-08-01T04:22:26;26.50;48.10
7736;DHT22;3911;48.830;9.072;2022-08-01T04:24:53;26.50;48.20
7736;DHT22;3911;48.830;9.072;2022-08-01T04:27:22;26.60;48.20
7736;DHT22;3911;48.830;9.072;2022-08-01T04:29:47;26.60;48.20
7736;DHT22;3911;48.830;9.072;2022-08-01T04:32:15;26.50;48.10
7736;DHT22;3911;48.830;9.072;2022-08-01T04:34:42;26.50;48.10
7736;DHT22;3911;48.830;9.072;2022-08-01T04:37:10;26.60;48.20
7736;DHT22;3911;48.830;9.072;2022-08-01T04:39:36;26.50;48.10
7736;DHT22;3911;48.830;9.072;2022-08-01T04:42:03;26.50;48.10
7736;DHT22;3911;48.830;9.072;2022-08-01T04:44:30;26.60;48.20
7736;DHT22;3911;48.830;9.072;2022-08-01T04:46:56;26.50;48.10
7736;DHT22;3911;48.830;9.072;2022-08-01T04:49:23;26.50;48.10
7736;DHT22;3911;48.830;9.072;2022-08-01T04:51:51;26.50;48.10
7736;DHT22;3911;48.830;9.072;2022-08-01T04:54:17;26.50;48.10
7736;DHT22;3911;48.830;9.072;2022-08-01T04:56:43;26.50;48.10
7736;DHT22;3911;48.830;9.072;2022-08-01T04:59:10;26.50;48.10
7736;DHT22;3911;48.830;9.072;2022-08-01T05:01:42;26.60;48.20
7736;DHT22;3911;48.830;9.072;2022-08-01T05:04:09;26.50;48.20
7736;DHT22;3911;48.830;9.072;2022-08-01T05:06:37;26.60;48.20
7736;DHT22;3911;48.830;9.072;2022-08-01T05:09:04;26.50;48.10
7736;DHT22;3911;48.830;9.072;2022-08-01T05:11:32;26.50;48.10
7736;DHT22;3911;48.830;9.072;2022-08-01T05:13:58;26.50;48.10
7736;DHT22;3911;48.830;9.072;2022-08-01T05:16:25;26.50;48.10
7736;DHT22;3911;48.830;9.072;2022-08-01T05:18:51;26.50;48.10
7736;DHT22;3911;48.830;9.072;2022-08-01T05:21:19;26.50;48.20
7736;DHT22;3911;48.830;9.072;2022-08-01T05:23:47;26.50;48.10
7736;DHT22;3911;48.830;9.072;2022-08-01T05:26:13;26.50;48.10
7736;DHT22;3911;48.830;9.072;2022-08-01T05:28:40;26.50;48.10
7736;DHT22;3911;48.830;9.072;2022-08-01T05:31:07;26.60;48.20
7736;DHT22;3911;48.830;9.072;2022-08-01T05:33:35;26.50;48.10
7736;DHT22;3911;48.830;9.072;2022-08-01T05:36:02;26.50;48.10
7736;DHT22;3911;48.830;9.072;2022-08-01T05:38:29;26.50;48.00
7736;DHT22;3911;48.830;9.072;2022-08-01T05:40:55;26.50;48.00
7736;DHT22;3911;48.830;9.072;2022-08-01T05:43:22;26.50;48.00
7736;DHT22;3911;48.830;9.072;2022-08-01T05:45:48;26.50;48.00
7736;DHT22;3911;48.830;9.072;2022-08-01T05:48:15;26.60;48.00
7736;DHT22;3911;48.830;9.072;2022-08-01T05:50:42;26.50;48.00
7736;DHT22;3911;48.830;9.072;2022-08-01T05:53:09;26.50;48.00
7736;DHT22;3911;48.830;9.072;2022-08-01T05:55:36;26.50;48.00
7736;DHT22;3911;48.830;9.072;2022-08-01T05:58:04;26.50;48.00
7736;DHT22;3911;48.830;9.072;2022-08-01T06:00:31;26.60;48.00
7736;DHT22;3911;48.830;9.072;2022-08-01T06:02:58;26.50;47.90
7736;DHT22;3911;48.830;9.072;2022-08-01T06:05:25;26.50;47.90
7736;DHT22;3911;48.830;9.072;2022-08-01T06:07:52;26.50;47.90
7736;DHT22;3911;48.830;9.072;2022-08-01T06:10:18;26.50;47.90
7736;DHT22;3911;48.830;9.072;2022-08-01T06:12:46;26.50;48.00
7736;DHT22;3911;48.830;9.072;2022-08-01T06:15:13;26.50;48.70
7736;DHT22;3911;48.830;9.072;2022-08-01T06:17:40;26.50;47.90
7736;DHT22;3911;48.830;9.072;2022-08-01T06:20:07;26.50;47.90
7736;DHT22;3911;48.830;9.072;2022-08-01T06:22:34;26.50;48.00
7736;DHT22;3911;48.830;9.072;2022-08-01T06:25:01;26.50;48.00
7736;DHT22;3911;48.830;9.072;2022-08-01T06:27:28;26.50;48.00
7736;DHT22;3911;48.830;9.072;2022-08-01T06:29:56;26.60;48.00
7736;DHT22;3911;48.830;9.072;2022-08-01T06:32:23;26.50;48.00
7736;DHT22;3911;48.830;9.072;2022-08-01T06:34:50;26.50;47.90
7736;DHT22;3911;48.830;9.072;2022-08-01T06:37:16;26.50;47.90
7736;DHT22;3911;48.830;9.072;2022-08-01T06:39:43;26.50;47.90
7736;DHT22;3911;48.830;9.072;2022-08-01T06:42:09;26.50;47.90
7736;DHT22;3911;48.830;9.072;2022-08-01T06:44:36;26.50;47.90
7736;DHT22;3911;48.830;9.072;2022-08-01T06:47:03;26.50;47.90
7736;DHT22;3911;48.830;9.072;2022-08-01T06:49:29;26.50;47.90
7736;DHT22;3911;48.830;9.072;2022-08-01T06:51:56;26.50;47.90
7736;DHT22;3911;48.830;9.072;2022-08-01T06:54:23;26.50;48.00
7736;DHT22;3911;48.830;9.072;2022-08-01T06:56:51;26.50;48.60
7736;DHT22;3911;48.830;9.072;2022-08-01T06:59:18;26.50;47.90
7736;DHT22;3911;48.830;9.072;2022-08-01T07:01:45;26.50;47.90
7736;DHT22;3911;48.830;9.072;2022-08-01T07:04:12;26.50;48.00
7736;DHT22;3911;48.830;9.072;2022-08-01T07:06:39;26.50;48.00
7736;DHT22;3911;48.830;9.072;2022-08-01T07:09:07;26.50;48.00
7736;DHT22;3911;48.830;9.072;2022-08-01T07:11:34;26.50;48.00
7736;DHT22;3911;48.830;9.072;2022-08-01T07:14:01;26.50;48.00
7736;DHT22;3911;48.830;9.072;2022-08-01T07:16:28;26.50;47.90
7736;DHT22;3911;48.830;9.072;2022-08-01T07:18:55;26.50;48.00
7736;DHT22;3911;48.830;9.072;2022-08-01T07:21:21;26.50;48.00
7736;DHT22;3911;48.830;9.072;2022-08-01T07:23:48;26.50;48.00
7736;DHT22;3911;48.830;9.072;2022-08-01T07:26:14;26.50;48.00
7736;DHT22;3911;48.830;9.072;2022-08-01T07:28:41;26.50;48.00
7736;DHT22;3911;48.830;9.072;2022-08-01T07:31:08;26.50;48.70
7736;DHT22;3911;48.830;9.072;2022-08-01T07:33:35;26.50;48.00
7736;DHT22;3911;48.830;9.072;2022-08-01T07:36:02;26.50;48.00
7736;DHT22;3911;48.830;9.072;2022-08-01T07:38:29;26.50;47.90
7736;DHT22;3911;48.830;9.072;2022-08-01T07:40:56;26.50;48.00
7736;DHT22;3911;48.830;9.072;2022-08-01T07:43:24;26.50;48.00
7736;DHT22;3911;48.830;9.072;2022-08-01T07:45:50;26.50;48.00
7736;DHT22;3911;48.830;9.072;2022-08-01T07:48:17;26.50;48.00
7736;DHT22;3911;48.830;9.072;2022-08-01T07:50:43;26.50;48.00
7736;DHT22;3911;48.830;9.072;2022-08-01T07:53:12;26.50;48.00
7736;DHT22;3911;48.830;9.072;2022-08-01T07:55:39;26.50;48.00
7736;DHT22;3911;48.830;9.072;2022-08-01T07:58:06;26.50;48.00
7736;DHT22;3911;48.830;9.072;2022-08-01T08:00:33;26.50;48.00
7736;DHT22;3911;48.830;9.072;2022-08-01T08:02:59;26.50;48.00
7736;DHT22;3911;48.830;9.072;2022-08-01T08:05:26;26.50;48.00
7736;DHT22;3911;48.830;9.072;2022-08-01T08:07:54;26.50;48.00
7736;DHT22;3911;48.830;9.072;2022-08-01T08:10:22;26.50;48.10
7736;DHT22;3911;48.830;9.072;2022-08-01T08:12:49;26.50;48.10
7736;DHT22;3911;48.830;9.072;2022-08-01T08:15:16;26.50;48.00
7736;DHT22;3911;48.830;9.072;2022-08-01T08:17:42;26.50;48.00
7736;DHT22;3911;48.830;9.072;2022-08-01T08:20:09;26.50;48.00
7736;DHT22;3911;48.830;9.072;2022-08-01T08:22:36;26.50;48.00
7736;DHT22;3911;48.830;9.072;2022-08-01T08:25:02;26.60;48.10
7736;DHT22;3911;48.830;9.072;2022-08-01T08:27:29;26.50;48.10
7736;DHT22;3911;48.830;9.072;2022-08-01T08:29:55;26.50;48.10
7736;DHT22;3911;48.830;9.072;2022-08-01T08:32:22;26.50;48.10
7736;DHT22;3911;48.830;9.072;2022-08-01T08:34:48;26.50;48.10
7736;DHT22;3911;48.830;9.072;2022-08-01T08:37:15;26.50;48.00
7736;DHT22;3911;48.830;9.072;2022-08-01T08:39:43;26.50;48.10
7736;DHT22;3911;48.830;9.072;2022-08-01T08:42:10;26.50;48.10
7736;DHT22;3911;48.830;9.072;2022-08-01T08:44:40;26.50;48.10
7736;DHT22;3911;48.830;9.072;2022-08-01T08:47:04;26.50;48.10
7736;DHT22;3911;48.830;9.072;2022-08-01T08:49:32;26.50;48.10
7736;DHT22;3911;48.830;9.072;2022-08-01T08:51:59;26.50;48.10
7736;DHT22;3911;48.830;9.072;2022-08-01T08:54:25;26.50;48.10
7736;DHT22;3911;48.830;9.072;2022-08-01T08:56:52;26.50;48.00
7736;DHT22;3911;48.830;9.072;2022-08-01T08:59:18;26.50;48.10
7736;DHT22;3911;48.830;9.072;2022-08-01T09:01:45;26.50;48.10
7736;DHT22;3911;48.830;9.072;2022-08-01T09:04:11;26.50;48.10
7736;DHT22;3911;48.830;9.072;2022-08-01T09:06:38;26.50;48.10
7736;DHT22;3911;48.830;9.072;2022-08-01T09:09:06;26.50;48.10
7736;DHT22;3911;48.830;9.072;2022-08-01T09:11:33;26.50;48.10
7736;DHT22;3911;48.830;9.072;2022-08-01T09:14:02;26.50;48.10
7736;DHT22;3911;48.830;9.072;2022-08-01T09:16:28;26.50;48.10
7736;DHT22;3911;48.830;9.072;2022-08-01T09:19:05;26.60;48.20
7736;DHT22;3911;48.830;9.072;2022-08-01T09:21:22;26.50;48.20
7736;DHT22;3911;48.830;9.072;2022-08-01T09:23:51;26.50;48.10
7736;DHT22;3911;48.830;9.072;2022-08-01T09:26:20;26.50;48.20
7736;DHT22;3911;48.830;9.072;2022-08-01T09:28:44;26.50;48.10
7736;DHT22;3911;48.830;9.072;2022-08-01T09:31:14;26.50;48.10
7736;DHT22;3911;48.830;9.072;2022-08-01T09:36:19;26.50;48.10
7736;DHT22;3911;48.830;9.072;2022-08-01T09:38:44;26.50;48.10
7736;DHT22;3911;48.830;9.072;2022-08-01T09:41:12;26.60;48.20
7736;DHT22;3911;48.830;9.072;2022-08-01T09:43:39;26.50;48.20
7736;DHT22;3911;48.830;9.072;2022-08-01T09:46:09;26.50;48.20
7736;DHT22;3911;48.830;9.072;2022-08-01T09:48:35;26.50;48.20
7736;DHT22;3911;48.830;9.072;2022-08-01T09:51:03;26.50;48.20
7736;DHT22;3911;48.830;9.072;2022-08-01T09:56:09;26.50;48.10
7736;DHT22;3911;48.830;9.072;2022-08-01T09:58:48;26.60;48.20
7736;DHT22;3911;48.830;9.072;2022-08-01T10:01:02;26.60;48.20
7736;DHT22;3911;48.830;9.072;2022-08-01T10:03:29;26.50;48.20
7736;DHT22;3911;48.830;9.072;2022-08-01T10:05:56;26.60;48.20
7736;DHT22;3911;48.830;9.072;2022-08-01T10:08:24;26.60;48.20
7736;DHT22;3911;48.830;9.072;2022-08-01T10:13:30;26.60;48.20
7736;DHT22;3911;48.830;9.072;2022-08-01T10:15:56;26.60;48.20
7736;DHT22;3911;48.830;9.072;2022-08-01T10:18:23;26.60;48.20
7736;DHT22;3911;48.830;9.072;2022-08-01T10:20:50;26.60;48.20
7736;DHT22;3911;48.830;9.072;2022-08-01T10:23:17;26.60;48.30
7736;DHT22;3911;48.830;9.072;2022-08-01T10:25:45;26.60;48.30
7736;DHT22;3911;48.830;9.072;2022-08-01T10:28:14;26.60;48.30
7736;DHT22;3911;48.830;9.072;2022-08-01T10:30:41;26.60;48.20
7736;DHT22;3911;48.830;9.072;2022-08-01T10:33:06;26.60;48.20
7736;DHT22;3911;48.830;9.072;2022-08-01T10:35:34;26.60;48.20
7736;DHT22;3911;48.830;9.072;2022-08-01T10:38:01;26.60;48.20
7736;DHT22;3911;48.830;9.072;2022-08-01T10:40:28;26.60;48.20
7736;DHT22;3911;48.830;9.072;2022-08-01T10:42:56;26.60;48.30
7736;DHT22;3911;48.830;9.072;2022-08-01T10:45:23;26.60;48.30
7736;DHT22;3911;48.830;9.072;2022-08-01T10:48:00;26.60;48.20
7736;DHT22;3911;48.830;9.072;2022-08-01T10:50:31;26.60;48.30
7736;DHT22;3911;48.830;9.072;2022-08-01T10:53:09;26.60;48.30
7736;DHT22;3911;48.830;9.072;2022-08-01T10:58:37;26.60;48.30
7736;DHT22;3911;48.830;9.072;2022-08-01T11:03:44;26.60;48.30
7736;DHT22;3911;48.830;9.072;2022-08-01T11:06:24;26.60;48.30
7736;DHT22;3911;48.830;9.072;2022-08-01T11:08:51;26.60;48.30
7736;DHT22;3911;48.830;9.072;2022-08-01T11:11:17;26.60;48.30
7736;DHT22;3911;48.830;9.072;2022-08-01T11:16:25;26.60;48.30
7736;DHT22;3911;48.830;9.072;2022-08-01T11:18:52;26.60;48.30
7736;DHT22;3911;48.830;9.072;2022-08-01T11:21:19;26.60;48.40
7736;DHT22;3911;48.830;9.072;2022-08-01T11:23:47;26.60;48.40
7736;DHT22;3911;48.830;9.072;2022-08-01T11:26:15;26.60;48.40
7736;DHT22;3911;48.830;9.072;2022-08-01T11:28:41;26.60;48.40
7736;DHT22;3911;48.830;9.072;2022-08-01T11:31:26;26.60;48.40
7736;DHT22;3911;48.830;9.072;2022-08-01T11:33:51;26.60;48.30
7736;DHT22;3911;48.830;9.072;2022-08-01T11:36:19;26.60;48.40
7736;DHT22;3911;48.830;9.072;2022-08-01T11:38:47;26.60;48.30
7736;DHT22;3911;48.830;9.072;2022-08-01T11:41:16;26.60;48.40
7736;DHT22;3911;48.830;9.072;2022-08-01T11:51:38;26.60;48.40
7736;DHT22;3911;48.830;9.072;2022-08-01T11:54:04;26.60;48.40
7736;DHT22;3911;48.830;9.072;2022-08-01T11:56:31;26.60;48.50
7736;DHT22;3911;48.830;9.072;2022-08-01T11:58:59;26.60;48.40
7736;DHT22;3911;48.830;9.072;2022-08-01T12:01:25;26.60;48.50
7736;DHT22;3911;48.830;9.072;2022-08-01T12:03:55;26.60;48.50
7736;DHT22;3911;48.830;9.072;2022-08-01T12:06:27;26.70;48.50
7736;DHT22;3911;48.830;9.072;2022-08-01T12:08:53;26.60;48.50
7736;DHT22;3911;48.830;9.072;2022-08-01T12:11:20;26.60;48.50
7736;DHT22;3911;48.830;9.072;2022-08-01T12:13:47;26.60;48.50
7736;DHT22;3911;48.830;9.072;2022-08-01T12:16:14;26.60;48.50
7736;DHT22;3911;48.830;9.072;2022-08-01T12:18:43;26.70;48.60
7736;DHT22;3911;48.830;9.072;2022-08-01T12:21:09;26.70;48.60
7736;DHT22;3911;48.830;9.072;2022-08-01T12:23:36;26.70;48.60
7736;DHT22;3911;48.830;9.072;2022-08-01T12:26:04;26.60;48.60
7736;DHT22;3911;48.830;9.072;2022-08-01T12:28:38;26.70;48.60
7736;DHT22;3911;48.830;9.072;2022-08-01T12:30:58;26.70;48.60
7736;DHT22;3911;48.830;9.072;2022-08-01T12:33:25;26.60;48.60
7736;DHT22;3911;48.830;9.072;2022-08-01T12:35:52;26.60;48.60
7736;DHT22;3911;48.830;9.072;2022-08-01T12:38:19;26.60;48.60
7736;DHT22;3911;48.830;9.072;2022-08-01T12:40:46;26.60;48.60
7736;DHT22;3911;48.830;9.072;2022-08-01T12:43:19;26.60;48.60
7736;DHT22;3911;48.830;9.072;2022-08-01T12:45:47;26.70;48.60
7736;DHT22;3911;48.830;9.072;2022-08-01T12:48:14;26.60;48.60
7736;DHT22;3911;48.830;9.072;2022-08-01T12:50:42;26.70;48.70
7736;DHT22;3911;48.830;9.072;2022-08-01T12:53:08;26.70;48.70
7736;DHT22;3911;48.830;9.072;2022-08-01T12:55:52;26.70;48.70
7736;DHT22;3911;48.830;9.072;2022-08-01T12:58:19;26.70;48.70
7736;DHT22;3911;48.830;9.072;2022-08-01T13:00:47;26.70;48.70
7736;DHT22;3911;48.830;9.072;2022-08-01T13:03:15;26.70;48.70
7736;DHT22;3911;48.830;9.072;2022-08-01T13:05:45;26.70;48.70
7736;DHT22;3911;48.830;9.072;2022-08-01T13:08:11;26.70;48.70
7736;DHT22;3911;48.830;9.072;2022-08-01T13:10:37;26.70;48.70
7736;DHT22;3911;48.830;9.072;2022-08-01T13:13:04;26.70;48.70
7736;DHT22;3911;48.830;9.072;2022-08-01T13:15:33;26.70;48.70
7736;DHT22;3911;48.830;9.072;2022-08-01T13:17:59;26.70;48.70
7736;DHT22;3911;48.830;9.072;2022-08-01T13:20:27;26.70;48.70
7736;DHT22;3911;48.830;9.072;2022-08-01T13:22:53;26.70;48.70
7736;DHT22;3911;48.830;9.072;2022-08-01T13:25:19;26.70;48.70
7736;DHT22;3911;48.830;9.072;2022-08-01T13:27:46;26.70;48.70
7736;DHT22;3911;48.830;9.072;2022-08-01T13:30:14;26.70;48.70
7736;DHT22;3911;48.830;9.072;2022-08-01T13:32:40;26.70;48.70
7736;DHT22;3911;48.830;9.072;2022-08-01T13:35:07;26.70;48.70
7736;DHT22;3911;48.830;9.072;2022-08-01T13:37:33;26.70;48.70
7736;DHT22;3911;48.830;9.072;2022-08-01T13:39:59;26.70;48.70
7736;DHT22;3911;48.830;9.072;2022-08-01T13:42:26;26.70;48.70
7736;DHT22;3911;48.830;9.072;2022-08-01T13:44:52;26.70;48.70
7736;DHT22;3911;48.830;9.072;2022-08-01T13:47:19;26.70;48.70
7736;DHT22;3911;48.830;9.072;2022-08-01T13:49:46;26.70;48.70
7736;DHT22;3911;48.830;9.072;2022-08-01T13:52:12;26.70;48.70
7736;DHT22;3911;48.830;9.072;2022-08-01T13:54:40;26.70;48.80
7736;DHT22;3911;48.830;9.072;2022-08-01T13:57:07;26.80;48.90
7736;DHT22;3911;48.830;9.072;2022-08-01T13:59:34;26.70;48.80
7736;DHT22;3911;48.830;9.072;2022-08-01T14:02:02;26.70;48.80
7736;DHT22;3911;48.830;9.072;2022-08-01T14:04:28;26.70;48.80
7736;DHT22;3911;48.830;9.072;2022-08-01T14:06:55;26.80;48.90
7736;DHT22;3911;48.830;9.072;2022-08-01T14:09:21;26.80;48.90
7736;DHT22;3911;48.830;9.072;2022-08-01T14:11:48;26.70;48.90
7736;DHT22;3911;48.830;9.072;2022-08-01T14:14:15;26.70;48.90
7736;DHT22;3911;48.830;9.072;2022-08-01T14:16:42;26.70;48.80
7736;DHT22;3911;48.830;9.072;2022-08-01T14:19:08;26.80;48.90
7736;DHT22;3911;48.830;9.072;2022-08-01T14:21:35;26.80;48.90
7736;DHT22;3911;48.830;9.072;2022-08-01T14:24:03;26.70;48.80
7736;DHT22;3911;48.830;9.072;2022-08-01T14:26:30;26.70;48.80
7736;DHT22;3911;48.830;9.072;2022-08-01T14:28:57;26.80;48.90
7736;DHT22;3911;48.830;9.072;2022-08-01T14:31:25;26.80;48.90
7736;DHT22;3911;48.830;9.072;2022-08-01T14:33:51;26.80;48.90
7736;DHT22;3911;48.830;9.072;2022-08-01T14:36:18;26.80;48.90
7736;DHT22;3911;48.830;9.072;2022-08-01T14:38:44;26.80;48.90
7736;DHT22;3911;48.830;9.072;2022-08-01T14:41:11;26.80;48.90
7736;DHT22;3911;48.830;9.072;2022-08-01T14:43:38;26.80;48.90
7736;DHT22;3911;48.830;9.072;2022-08-01T14:46:04;26.80;48.90
7736;DHT22;3911;48.830;9.072;2022-08-01T14:48:31;26.80;49.00
7736;DHT22;3911;48.830;9.072;2022-08-01T14:50:58;26.80;48.90
7736;DHT22;3911;48.830;9.072;2022-08-01T14:53:25;26.80;48.90
7736;DHT22;3911;48.830;9.072;2022-08-01T14:55:51;26.80;49.00
7736;DHT22;3911;48.830;9.072;2022-08-01T14:58:18;26.80;48.90
7736;DHT22;3911;48.830;9.072;2022-08-01T15:00:45;26.80;49.00
7736;DHT22;3911;48.830;9.072;2022-08-01T15:03:11;26.80;49.00
7736;DHT22;3911;48.830;9.072;2022-08-01T15:05:38;26.80;48.90
7736;DHT22;3911;48.830;9.072;2022-08-01T15:08:05;26.80;49.00
7736;DHT22;3911;48.830;9.072;2022-08-01T15:10:32;26.80;49.00
7736;DHT22;3911;48.830;9.072;2022-08-01T15:12:59;26.80;48.90
7736;DHT22;3911;48.830;9.072;2022-08-01T15:15:27;26.80;49.00
7736;DHT22;3911;48.830;9.072;2022-08-01T15:17:53;26.80;48.90
7736;DHT22;3911;48.830;9.072;2022-08-01T15:20:20;26.80;48.90
7736;DHT22;3911;48.830;9.072;2022-08-01T15:22:46;26.80;49.00
7736;DHT22;3911;48.830;9.072;2022-08-01T15:25:13;26.80;49.70
7736;DHT22;3911;48.830;9.072;2022-08-01T15:27:40;26.80;49.00
7736;DHT22;3911;48.830;9.072;2022-08-01T15:30:07;26.80;49.00
7736;DHT22;3911;48.830;9.072;2022-08-01T15:32:34;26.80;48.90
7736;DHT22;3911;48.830;9.072;2022-08-01T15:35:01;26.80;49.00
7736;DHT22;3911;48.830;9.072;2022-08-01T15:37:27;26.80;49.00
7736;DHT22;3911;48.830;9.072;2022-08-01T15:39:54;26.90;49.00
7736;DHT22;3911;48.830;9.072;2022-08-01T15:42:20;26.90;49.00
7736;DHT22;3911;48.830;9.072;2022-08-01T15:44:47;26.90;49.00
7736;DHT22;3911;48.830;9.072;2022-08-01T15:47:14;26.90;49.00
7736;DHT22;3911;48.830;9.072;2022-08-01T15:49:42;26.90;49.00
7736;DHT22;3911;48.830;9.072;2022-08-01T15:52:09;26.90;49.00
7736;DHT22;3911;48.830;9.072;2022-08-01T15:54:36;26.90;49.00
7736;DHT22;3911;48.830;9.072;2022-08-01T15:57:03;26.90;49.00
7736;DHT22;3911;48.830;9.072;2022-08-01T15:59:30;26.90;49.70
7736;DHT22;3911;48.830;9.072;2022-08-01T16:01:56;26.90;49.00
7736;DHT22;3911;48.830;9.072;2022-08-01T16:04:23;26.90;49.00
7736;DHT22;3911;48.830;9.072;2022-08-01T16:06:49;26.90;49.00
7736;DHT22;3911;48.830;9.072;2022-08-01T16:09:16;26.90;49.00
7736;DHT22;3911;48.830;9.072;2022-08-01T16:11:43;26.90;49.00
7736;DHT22;3911;48.830;9.072;2022-08-01T16:14:10;26.90;49.00
7736;DHT22;3911;48.830;9.072;2022-08-01T16:16:37;26.90;49.00
7736;DHT22;3911;48.830;9.072;2022-08-01T16:19:05;26.90;49.00
7736;DHT22;3911;48.830;9.072;2022-08-01T16:21:31;26.90;49.00
7736;DHT22;3911;48.830;9.072;2022-08-01T16:23:58;26.90;48.90
7736;DHT22;3911;48.830;9.072;2022-08-01T16:26:24;26.90;48.90
7736;DHT22;3911;48.830;9.072;2022-08-01T16:28:51;26.90;49.00
7736;DHT22;3911;48.830;9.072;2022-08-01T16:31:18;26.90;48.90